Time;durP1;ratioP1;P1;durP2;ratioP2;P2;SDS_P1;SDS_P2;PMS_P1;PMS_P2;Temp;Humidity;BMP_temperature;BMP_pressure;BME280_temperature;BME280_humidity;BME280_pressure;Samples;Min_cycle;Max_cycle;Signal;HPM_P1;HPM_P2
2022/04/07 00:00:08;;;;;;;4.93;2.40;;;10.50;99.90;;;;;;5070681;28;20100;-72
2022/04/07 00:02:34;;;;;;;5.80;2.47;;;10.50;99.90;;;;;;5070468;28;20027;-72
2022/04/07 00:05:01;;;;;;;4.93;2.60;;;10.50;99.90;;;;;;5070670;28;20099;-72
2022/04/07 00:07:27;;;;;;;5.50;2.70;;;10.50;99.90;;;;;;5070252;28;20028;-72
2022/04/07 00:09:53;;;;;;;6.33;2.77;;;10.50;99.90;;;;;;5070342;28;20032;-72
2022/04/07 00:12:19;;;;;;;5.03;3.20;;;10.50;99.90;;;;;;5052266;28;20032;-73
2022/04/07 00:14:45;;;;;;;7.63;3.10;;;10.50;99.90;;;;;;5070471;28;20440;-72
2022/04/07 00:17:10;;;;;;;7.13;2.50;;;10.60;99.90;;;;;;5052093;28;20036;-72
2022/04/07 00:19:37;;;;;;;5.50;2.43;;;10.60;99.90;;;;;;5070275;28;20406;-72
2022/04/07 00:22:04;;;;;;;6.70;2.60;;;10.60;99.90;;;;;;5070213;28;20029;-72
2022/04/07 00:24:30;;;;;;;6.83;2.60;;;10.60;99.90;;;;;;5052403;28;20033;-72
2022/04/07 00:26:56;;;;;;;6.90;2.60;;;10.60;99.90;;;;;;5052030;28;20036;-72
2022/04/07 00:29:22;;;;;;;6.50;2.80;;;10.50;99.90;;;;;;5070356;28;20515;-72
2022/04/07 00:31:55;;;;;;;5.47;2.43;;;10.50;99.90;;;;;;5070148;28;20108;-72
2022/04/07 00:34:21;;;;;;;5.40;2.27;;;10.50;99.90;;;;;;5052194;28;20507;-72
2022/04/07 00:36:47;;;;;;;4.23;1.93;;;10.50;99.90;;;;;;5069952;28;20050;-72
2022/04/07 00:39:13;;;;;;;3.17;1.70;;;10.50;99.90;;;;;;5054258;28;20033;-72
2022/04/07 00:41:39;;;;;;;3.80;1.80;;;10.50;99.90;;;;;;5073644;28;20477;-72
2022/04/07 00:44:08;;;;;;;2.57;1.63;;;10.50;99.90;;;;;;5073694;28;20439;-72
2022/04/07 00:46:35;;;;;;;;;;;10.50;99.90;;;;;;5073748;28;20056;-71
2022/04/07 00:49:01;;;;;;;2.63;1.57;;;10.50;99.90;;;;;;5073855;28;20280;-71
2022/04/07 00:51:27;;;;;;;4.93;2.10;;;10.50;99.90;;;;;;5073413;28;20028;-72
2022/04/07 00:53:53;;;;;;;3.07;1.80;;;10.50;99.90;;;;;;5073422;28;20067;-72
2022/04/07 00:56:19;;;;;;;3.93;1.53;;;10.50;99.90;;;;;;5073298;28;20068;-72
2022/04/07 00:58:47;;;;;;;2.73;1.50;;;10.50;99.90;;;;;;5055440;28;20055;-72
2022/04/07 01:01:14;;;;;;;3.83;1.63;;;10.50;99.90;;;;;;5073338;28;20047;-72
2022/04/07 01:03:41;;;;;;;5.67;1.80;;;10.50;99.90;;;;;;5073035;28;20038;-72
2022/04/07 01:06:06;;;;;;;3.93;1.70;;;10.50;99.90;;;;;;5073423;28;20060;-72
2022/04/07 01:08:32;;;;;;;4.07;1.90;;;10.50;99.90;;;;;;5073001;28;20055;-72
2022/04/07 01:10:59;;;;;;;6.30;2.03;;;10.40;99.90;;;;;;5073342;28;20028;-72
2022/04/07 01:13:45;;;;;;;5.13;2.40;;;10.50;99.90;;;;;;5073170;28;20033;-72
2022/04/07 01:16:11;;;;;;;6.80;2.70;;;10.50;99.90;;;;;;5072829;28;20086;-72
2022/04/07 01:18:38;;;;;;;6.27;2.43;;;10.40;99.90;;;;;;5072803;28;20439;-73
2022/04/07 01:21:06;;;;;;;6.30;2.10;;;10.40;99.90;;;;;;5072839;28;20086;-73
2022/04/07 01:23:35;;;;;;;8.37;2.20;;;10.50;99.90;;;;;;5073219;28;20032;-72
2022/04/07 01:26:02;;;;;;;6.75;1.92;;;10.40;99.90;;;;;;5072728;28;20032;-72
2022/04/07 01:28:28;;;;;;;4.67;1.90;;;10.50;99.90;;;;;;5072951;28;20504;-72
2022/04/07 01:30:54;;;;;;;5.97;1.70;;;10.50;99.90;;;;;;5073073;28;20037;-72
2022/04/07 01:33:21;;;;;;;5.90;2.00;;;10.50;99.90;;;;;;5072481;28;20032;-72
2022/04/07 01:35:46;;;;;;;6.63;1.90;;;10.50;99.90;;;;;;5072618;28;20024;-73
2022/04/07 01:38:12;;;;;;;6.87;2.07;;;10.60;99.90;;;;;;5072417;28;20503;-72
2022/04/07 01:40:38;;;;;;;9.13;1.90;;;10.60;99.90;;;;;;5072579;28;20511;-72
2022/04/07 01:43:07;;;;;;;5.93;1.97;;;10.60;99.90;;;;;;5072422;28;20406;-72
2022/04/07 01:45:34;;;;;;;5.80;1.60;;;10.60;99.90;;;;;;5072447;28;20509;-72
2022/04/07 01:48:02;;;;;;;5.47;1.93;;;10.60;99.90;;;;;;5054189;28;20123;-72
2022/04/07 01:50:30;;;;;;;5.97;2.20;;;10.60;99.90;;;;;;5072004;28;20091;-72
2022/04/07 01:52:57;;;;;;;4.13;1.30;;;10.60;99.90;;;;;;5072176;28;20043;-72
2022/04/07 01:55:25;;;;;;;4.00;1.40;;;10.60;99.90;;;;;;5072211;28;20477;-72
2022/04/07 01:57:51;;;;;;;4.23;1.40;;;10.60;99.90;;;;;;5072040;28;20546;-72
2022/04/07 02:00:17;;;;;;;4.57;1.30;;;10.60;99.90;;;;;;5072614;28;20021;-72
2022/04/07 02:02:45;;;;;;;4.20;1.20;;;10.60;99.90;;;;;;5071881;28;20024;-72
2022/04/07 02:05:11;;;;;;;4.67;1.30;;;10.60;99.90;;;;;;5072027;28;20059;-72
2022/04/07 02:07:43;;;;;;;2.93;1.10;;;10.60;99.90;;;;;;5053944;28;20082;-72
2022/04/07 02:10:12;;;;;;;3.27;1.10;;;10.60;99.90;;;;;;5071970;28;20481;-72
2022/04/07 02:12:41;;;;;;;5.25;1.02;;;10.60;99.90;;;;;;5072063;28;20411;-72
2022/04/07 02:15:11;;;;;;;5.57;1.33;;;10.70;99.90;;;;;;5054145;28;20374;-72
2022/04/07 02:17:38;;;;;;;4.60;1.27;;;10.60;99.90;;;;;;5071684;28;20487;-72
2022/04/07 02:20:06;;;;;;;6.77;1.53;;;10.60;99.90;;;;;;5071787;28;20037;-72
2022/04/07 02:22:32;;;;;;;7.03;1.48;;;10.70;99.90;;;;;;5071654;28;20021;-72
2022/04/07 02:24:59;;;;;;;6.23;1.53;;;10.70;99.90;;;;;;5071832;28;20043;-72
2022/04/07 02:27:25;;;;;;;5.57;1.40;;;10.70;99.90;;;;;;5071468;28;20024;-72
2022/04/07 02:29:51;;;;;;;4.97;1.50;;;10.70;99.90;;;;;;5071511;28;20036;-72
2022/04/07 02:32:18;;;;;;;4.33;1.50;;;10.70;99.90;;;;;;5071433;28;20100;-72
2022/04/07 02:34:44;;;;;;;3.83;1.50;;;10.70;99.90;;;;;;5071359;28;20028;-72
2022/04/07 02:37:10;;;;;;;4.87;1.37;;;10.70;99.90;;;;;;5071270;28;20066;-72
2022/04/07 02:39:36;;;;;;;3.07;1.30;;;10.70;99.90;;;;;;5071350;28;20029;-72
2022/04/07 02:42:03;;;;;;;3.93;1.57;;;10.60;99.90;;;;;;5071840;28;20161;-72
2022/04/07 02:44:29;;;;;;;4.87;1.53;;;10.60;99.90;;;;;;5071319;28;20032;-72
2022/04/07 02:46:54;;;;;;;4.03;1.50;;;10.50;99.90;;;;;;5071365;28;20021;-72
2022/04/07 02:49:20;;;;;;;4.80;1.47;;;10.60;99.90;;;;;;5071352;28;20446;-72
2022/04/07 02:51:46;;;;;;;4.40;1.60;;;10.50;99.90;;;;;;5071294;28;20029;-72
2022/04/07 02:54:12;;;;;;;4.10;1.50;;;10.50;99.90;;;;;;5071130;28;20036;-72
2022/04/07 02:56:38;;;;;;;5.40;1.53;;;10.50;99.90;;;;;;5070988;28;20032;-71
2022/04/07 02:59:04;;;;;;;4.47;1.53;;;10.50;99.90;;;;;;5071027;28;20548;-72
2022/04/07 03:01:30;;;;;;;4.97;1.40;;;10.50;99.90;;;;;;5052431;28;20381;-72
2022/04/07 03:03:56;;;;;;;4.10;1.50;;;10.40;99.90;;;;;;5053085;28;20111;-72
2022/04/07 03:06:22;;;;;;;6.07;1.30;;;10.40;99.90;;;;;;5071249;28;20048;-72
2022/04/07 03:08:49;;;;;;;5.50;1.40;;;10.40;99.90;;;;;;5052911;28;20035;-72
2022/04/07 03:11:15;;;;;;;3.67;1.43;;;10.50;99.90;;;;;;5071187;28;20043;-72
2022/04/07 03:13:40;;;;;;;5.30;1.37;;;10.40;99.90;;;;;;5070716;28;20024;-72
2022/04/07 03:16:07;;;;;;;4.90;1.70;;;10.40;99.90;;;;;;5070811;28;20020;-72
2022/04/07 03:18:33;;;;;;;4.33;1.43;;;10.50;99.90;;;;;;5070763;28;20074;-72
2022/04/07 03:20:59;;;;;;;5.30;1.50;;;10.40;99.90;;;;;;5071026;28;20029;-72
2022/04/07 03:23:25;;;;;;;3.70;1.20;;;10.50;99.90;;;;;;5071049;28;20469;-71
2022/04/07 03:25:52;;;;;;;4.70;1.20;;;10.40;99.90;;;;;;5070854;28;20470;-72
2022/04/07 03:28:18;;;;;;;3.03;1.10;;;10.40;99.90;;;;;;5070544;28;20036;-72
2022/04/07 03:30:44;;;;;;;4.53;1.20;;;10.40;99.90;;;;;;5070798;28;20068;-72
2022/04/07 03:33:10;;;;;;;4.10;1.43;;;10.40;99.90;;;;;;5070693;28;20189;-72
2022/04/07 03:35:37;;;;;;;3.23;1.00;;;10.50;99.90;;;;;;5070697;28;20024;-72
2022/04/07 03:38:04;;;;;;;4.60;1.10;;;10.50;99.90;;;;;;5070635;28;20090;-72
2022/04/07 03:40:30;;;;;;;4.27;1.27;;;10.50;99.90;;;;;;5070802;28;20033;-72
2022/04/07 03:42:56;;;;;;;4.80;1.40;;;10.60;99.90;;;;;;5070457;28;20090;-72
2022/04/07 03:45:22;;;;;;;4.37;1.13;;;10.60;99.90;;;;;;5070574;28;20052;-72
2022/04/07 03:47:48;;;;;;;4.27;0.97;;;10.60;99.90;;;;;;5070525;28;20032;-72
2022/04/07 03:50:14;;;;;;;4.07;1.17;;;10.60;99.90;;;;;;5070742;28;20433;-72
2022/04/07 03:52:40;;;;;;;6.80;1.00;;;10.60;99.90;;;;;;5052454;28;20043;-72
2022/04/07 03:55:06;;;;;;;6.00;1.10;;;10.60;99.90;;;;;;5070583;28;20036;-72
2022/04/07 03:57:32;;;;;;;7.07;1.20;;;10.70;99.90;;;;;;5070247;28;20394;-72
2022/04/07 03:59:58;;;;;;;5.67;1.50;;;10.60;99.90;;;;;;5070450;28;20016;-72
2022/04/07 04:02:24;;;;;;;6.03;1.53;;;10.60;99.90;;;;;;5070503;28;20062;-72
2022/04/07 04:04:50;;;;;;;7.93;1.47;;;10.70;99.90;;;;;;5070578;28;20071;-72
2022/04/07 04:07:16;;;;;;;7.33;1.47;;;10.70;99.90;;;;;;5070204;28;20024;-72
2022/04/07 04:09:42;;;;;;;6.70;1.40;;;10.80;99.90;;;;;;5070501;28;20034;-72
2022/04/07 04:12:09;;;;;;;7.87;1.37;;;10.80;99.90;;;;;;5071280;28;20064;-72
2022/04/07 04:14:35;;;;;;;6.47;2.20;;;10.80;99.90;;;;;;5074099;28;20036;-73
2022/04/07 04:17:00;;;;;;;7.03;1.70;;;10.80;99.90;;;;;;5074006;28;20025;-72
2022/04/07 04:19:26;;;;;;;7.90;1.50;;;10.80;99.90;;;;;;5074183;28;20389;-72
2022/04/07 04:21:52;;;;;;;3.57;1.10;;;10.80;99.90;;;;;;5073843;28;20517;-72
2022/04/07 04:24:18;;;;;;;4.63;1.10;;;10.80;99.90;;;;;;5056215;28;20215;-72
2022/04/07 04:26:44;;;;;;;8.00;2.23;;;10.80;99.90;;;;;;5073770;28;20068;-72
2022/04/07 04:29:10;;;;;;;5.67;1.30;;;10.90;99.90;;;;;;5073872;28;20482;-72
2022/04/07 04:31:36;;;;;;;5.63;1.10;;;10.90;99.90;;;;;;5073860;28;20029;-72
2022/04/07 04:34:02;;;;;;;6.03;1.20;;;10.80;99.90;;;;;;5073975;28;20036;-72
2022/04/07 04:36:28;;;;;;;3.53;1.00;;;10.80;99.90;;;;;;5055760;28;20028;-73
2022/04/07 04:38:54;;;;;;;7.50;2.40;;;10.80;99.90;;;;;;5073722;28;20469;-72
2022/04/07 04:41:20;;;;;;;5.80;1.80;;;10.80;99.90;;;;;;5073711;28;20450;-72
2022/04/07 04:43:46;;;;;;;5.20;1.63;;;10.80;99.90;;;;;;5073642;28;20119;-72
2022/04/07 04:46:12;;;;;;;4.37;1.17;;;10.80;99.90;;;;;;5073516;28;20071;-72
2022/04/07 04:48:38;;;;;;;5.73;1.30;;;10.70;99.90;;;;;;5073239;28;20389;-72
2022/04/07 04:51:07;;;;;;;14.90;5.97;;;10.70;99.90;;;;;;5073492;28;20036;-72
2022/04/07 04:53:33;;;;;;;5.72;1.50;;;10.70;99.90;;;;;;5073264;28;20107;-72
2022/04/07 04:55:59;;;;;;;4.47;1.37;;;10.60;99.90;;;;;;5055600;28;20024;-72
2022/04/07 04:58:25;;;;;;;6.67;1.90;;;10.60;99.90;;;;;;5073214;28;20025;-72
2022/04/07 05:00:51;;;;;;;4.17;1.53;;;10.60;99.90;;;;;;5055808;28;20028;-72
2022/04/07 05:03:17;;;;;;;3.43;1.37;;;10.60;99.90;;;;;;5073277;28;20024;-72
2022/04/07 05:05:43;;;;;;;5.10;1.87;;;10.50;99.90;;;;;;5073288;28;20029;-72
2022/04/07 05:08:09;;;;;;;3.03;1.20;;;10.50;99.90;;;;;;5055108;28;20116;-72
2022/04/07 05:10:36;;;;;;;2.23;1.40;;;10.40;99.90;;;;;;5055169;28;20028;-71
2022/04/07 05:13:03;;;;;;;3.80;1.77;;;10.40;99.90;;;;;;5073076;28;20393;-71
2022/04/07 05:15:28;;;;;;;4.40;1.60;;;10.40;99.90;;;;;;5073134;28;20461;-72
2022/04/07 05:17:54;;;;;;;5.13;2.37;;;10.40;99.90;;;;;;5073034;28;20103;-72
2022/04/07 05:20:23;;;;;;;6.50;3.70;;;10.30;99.90;;;;;;5072876;28;20382;-72
2022/04/07 05:22:49;;;;;;;7.55;2.38;;;10.30;99.90;;;;;;5054954;28;20024;-72
2022/04/07 05:25:15;;;;;;;6.47;1.67;;;10.30;99.90;;;;;;5071950;28;20220;-72
2022/04/07 05:27:43;;;;;;;4.23;1.50;;;10.30;99.90;;;;;;5072859;28;20024;-72
2022/04/07 05:30:15;;;;;;;5.33;1.43;;;10.30;99.90;;;;;;5038367;28;20036;-72
2022/04/07 05:32:43;;;;;;;3.30;1.30;;;10.30;99.90;;;;;;5072808;28;20028;-72
2022/04/07 05:35:10;;;;;;;4.47;1.50;;;10.20;99.90;;;;;;5072818;28;20495;-72
2022/04/07 05:37:36;;;;;;;4.57;1.53;;;10.20;99.90;;;;;;5072631;28;20111;-72
2022/04/07 05:40:03;;;;;;;3.33;1.30;;;10.20;99.90;;;;;;5072755;28;20024;-72
2022/04/07 05:42:29;;;;;;;3.43;1.30;;;10.30;99.90;;;;;;5072680;28;20020;-72
2022/04/07 05:44:55;;;;;;;4.00;1.30;;;10.40;99.90;;;;;;5072511;28;20034;-72
2022/04/07 05:47:21;;;;;;;3.17;1.13;;;10.40;99.90;;;;;;5072378;28;20032;-72
2022/04/07 05:49:47;;;;;;;1.37;0.80;;;10.40;99.90;;;;;;5072274;28;20036;-72
2022/04/07 05:52:13;;;;;;;3.77;0.93;;;10.50;99.90;;;;;;5072245;28;20028;-72
2022/04/07 05:54:39;;;;;;;2.77;1.10;;;10.50;99.90;;;;;;5072311;28;20029;-72
2022/04/07 05:57:06;;;;;;;2.50;0.90;;;10.50;99.90;;;;;;5072147;28;20044;-73
2022/04/07 05:59:32;;;;;;;3.80;0.90;;;10.50;99.90;;;;;;5072281;28;20025;-72
2022/04/07 06:01:58;;;;;;;2.40;1.07;;;10.50;99.90;;;;;;5072015;28;20099;-72
2022/04/07 06:04:24;;;;;;;2.20;0.90;;;10.60;99.90;;;;;;5072051;28;20464;-72
2022/04/07 06:06:49;;;;;;;4.13;1.50;;;10.70;99.90;;;;;;5071959;28;20040;-72
2022/04/07 06:09:15;;;;;;;2.27;0.90;;;10.70;99.90;;;;;;5072134;28;20308;-70
2022/04/07 06:11:41;;;;;;;5.43;2.77;;;10.60;99.90;;;;;;5054079;28;20489;-71
2022/04/07 06:14:07;;;;;;;3.20;1.17;;;10.60;99.90;;;;;;5054237;28;20393;-70
2022/04/07 06:16:33;;;;;;;3.77;1.63;;;10.60;99.90;;;;;;5071940;28;20021;-71
2022/04/07 06:18:59;;;;;;;3.03;1.10;;;10.60;99.90;;;;;;5071747;28;20029;-71
2022/04/07 06:21:29;;;;;;;3.67;1.20;;;10.60;99.90;;;;;;5071811;28;20020;-71
2022/04/07 06:23:57;;;;;;;2.50;1.00;;;10.60;99.90;;;;;;5072002;28;20125;-71
2022/04/07 06:26:24;;;;;;;4.20;1.30;;;10.60;99.90;;;;;;5071851;28;20051;-71
2022/04/07 06:28:50;;;;;;;2.50;0.83;;;10.60;99.90;;;;;;5053975;28;20028;-71
2022/04/07 06:31:16;;;;;;;3.37;0.90;;;10.60;99.90;;;;;;5071835;28;20036;-71
2022/04/07 06:33:41;;;;;;;3.70;0.80;;;10.60;99.90;;;;;;5071597;28;20504;-71
2022/04/07 06:36:07;;;;;;;2.47;0.90;;;10.60;99.90;;;;;;5071855;28;20059;-71
2022/04/07 06:38:33;;;;;;;5.00;1.30;;;10.60;99.90;;;;;;5071604;28;20029;-71
2022/04/07 06:41:00;;;;;;;1.87;0.60;;;10.60;99.90;;;;;;5071780;28;20032;-71
2022/04/07 06:43:27;;;;;;;2.47;0.90;;;10.70;99.90;;;;;;5053781;28;20036;-71
2022/04/07 06:45:53;;;;;;;2.33;0.90;;;10.70;99.90;;;;;;5071371;28;20040;-71
2022/04/07 06:48:19;;;;;;;2.67;0.70;;;10.70;99.90;;;;;;5071116;28;20036;-71
2022/04/07 06:50:45;;;;;;;6.80;2.10;;;10.60;99.90;;;;;;5053566;28;20039;-71
2022/04/07 06:53:14;;;;;;;1.90;0.80;;;10.70;99.90;;;;;;5071237;28;20108;-71
2022/04/07 06:55:40;;;;;;;3.25;0.80;;;10.70;99.90;;;;;;5071157;28;20028;-71
2022/04/07 06:58:10;;;;;;;3.00;0.70;;;10.60;99.90;;;;;;5070788;28;20025;-71
2022/04/07 07:00:43;;;;;;;2.93;0.80;;;10.60;99.90;;;;;;5053315;28;20028;-71
2022/04/07 07:03:09;;;;;;;2.93;0.90;;;10.60;99.90;;;;;;5071004;28;20036;-71
2022/04/07 07:05:37;;;;;;;2.20;1.00;;;10.60;99.90;;;;;;5071031;28;20049;-71
2022/04/07 07:08:10;;;;;;;4.07;1.07;;;10.60;99.90;;;;;;5070972;28;20060;-71
2022/04/07 07:10:36;;;;;;;3.27;0.83;;;10.60;99.90;;;;;;5070985;28;20085;-71
2022/04/07 07:13:02;;;;;;;1.37;0.50;;;10.70;99.90;;;;;;5070836;28;20036;-72
2022/04/07 07:15:28;;;;;;;2.60;0.90;;;10.60;99.90;;;;;;5070750;28;20564;-72
2022/04/07 07:17:54;;;;;;;3.50;0.63;;;10.60;99.90;;;;;;5070771;28;20024;-72
2022/04/07 07:20:20;;;;;;;2.70;0.80;;;10.60;99.90;;;;;;5071194;28;20107;-71
2022/04/07 07:22:46;;;;;;;1.20;0.70;;;10.60;99.90;;;;;;5070814;28;20048;-71
2022/04/07 07:25:13;;;;;;;2.77;0.70;;;10.60;99.90;;;;;;5070672;28;20473;-71
2022/04/07 07:27:46;;;;;;;2.07;0.70;;;10.60;99.90;;;;;;5070623;28;20035;-71
2022/04/07 07:30:16;;;;;;;2.47;0.70;;;10.50;99.90;;;;;;5070914;28;20116;-71
2022/04/07 07:32:44;;;;;;;1.70;0.70;;;10.50;99.90;;;;;;5070726;28;20029;-71
2022/04/07 07:35:11;;;;;;;4.87;0.83;;;10.60;99.90;;;;;;5070740;28;20093;-71
2022/04/07 07:37:46;;;;;;;2.67;0.83;;;10.60;99.90;;;;;;5070568;28;20040;-71
2022/04/07 07:40:12;;;;;;;1.80;0.70;;;10.60;99.90;;;;;;5070674;28;20112;-71
2022/04/07 07:42:38;;;;;;;2.07;0.80;;;10.60;99.90;;;;;;5070645;28;20035;-71
2022/04/07 07:45:05;;;;;;;3.20;1.40;;;10.60;99.90;;;;;;5070560;28;20033;-71
2022/04/07 07:47:32;;;;;;;5.27;1.37;;;10.60;99.90;;;;;;5053786;28;20481;-71
2022/04/07 07:49:58;;;;;;;2.47;0.87;;;10.60;99.90;;;;;;5057014;28;20032;-71
2022/04/07 07:52:24;;;;;;;4.63;1.27;;;10.70;99.90;;;;;;5074545;28;20051;-71
2022/04/07 07:54:49;;;;;;;2.20;0.63;;;10.60;99.90;;;;;;5074371;28;20120;-71
2022/04/07 07:57:15;;;;;;;1.90;0.90;;;10.70;99.90;;;;;;5074399;28;20082;-71
2022/04/07 07:59:41;;;;;;;2.77;0.93;;;10.70;99.90;;;;;;5074490;28;20025;-71
2022/04/07 08:02:07;;;;;;;5.07;1.23;;;10.60;99.90;;;;;;5074447;28;20473;-71
2022/04/07 08:04:33;;;;;;;2.20;0.70;;;10.60;99.90;;;;;;5074749;28;20028;-71
2022/04/07 08:06:59;;;;;;;1.60;0.60;;;10.60;99.90;;;;;;5074230;28;20055;-71
2022/04/07 08:09:25;;;;;;;1.60;0.50;;;10.60;99.90;;;;;;5056455;28;20032;-71
2022/04/07 08:11:51;;;;;;;1.60;0.70;;;10.60;99.90;;;;;;5074602;28;20043;-72
2022/04/07 08:14:17;;;;;;;3.03;0.50;;;10.60;99.90;;;;;;5056328;28;20028;-71
2022/04/07 08:16:43;;;;;;;2.20;0.70;;;10.60;99.90;;;;;;5096024;22;20048;-86
2022/04/07 08:19:09;;;;;;;2.27;0.43;;;10.70;99.90;;;;;;5056379;28;20036;-86
2022/04/07 08:21:36;;;;;;;0.67;0.40;;;10.70;99.90;;;;;;5055914;28;20025;-86
2022/04/07 08:24:03;;;;;;;2.07;0.40;;;10.80;99.90;;;;;;5074259;28;20035;-86
2022/04/07 08:26:29;;;;;;;3.40;0.60;;;10.90;99.90;;;;;;5073951;28;20040;-86
2022/04/07 08:28:55;;;;;;;0.33;0.20;;;10.90;99.90;;;;;;5073959;28;20032;-86
2022/04/07 08:31:21;;;;;;;1.27;0.40;;;11.00;99.90;;;;;;5073791;28;20039;-86
2022/04/07 08:33:46;;;;;;;0.60;0.40;;;11.00;99.90;;;;;;5073977;28;20066;-86
2022/04/07 08:36:12;;;;;;;1.50;0.30;;;11.10;99.90;;;;;;5055707;28;20035;-86
2022/04/07 08:38:38;;;;;;;0.77;0.40;;;11.10;99.90;;;;;;5073767;28;20066;-86
2022/04/07 08:41:09;;;;;;;1.33;0.40;;;11.10;99.90;;;;;;5055985;28;20024;-86
2022/04/07 08:43:38;;;;;;;1.73;0.23;;;11.20;99.90;;;;;;5073614;28;20489;-86
2022/04/07 08:46:10;;;;;;;0.65;0.30;;;11.20;99.90;;;;;;5055790;28;20028;-86
2022/04/07 08:48:40;;;;;;;1.00;0.40;;;11.10;99.90;;;;;;5073377;28;20060;-86
2022/04/07 08:51:06;;;;;;;0.30;0.30;;;11.20;99.90;;;;;;5039371;28;20075;-86
2022/04/07 08:53:36;;;;;;;2.00;0.60;;;11.20;99.90;;;;;;5073399;28;20471;-86
2022/04/07 08:56:03;;;;;;;0.83;0.50;;;11.20;99.90;;;;;;5055546;28;20035;-86
2022/04/07 08:58:29;;;;;;;1.13;0.30;;;11.20;99.90;;;;;;5072583;28;20036;-86
2022/04/07 09:00:55;;;;;;;1.10;0.50;;;11.30;99.90;;;;;;5072992;28;20029;-86
2022/04/07 09:03:21;;;;;;;1.43;0.60;;;11.40;99.90;;;;;;5055254;28;20040;-86
2022/04/07 09:05:55;;;;;;;0.47;0.40;;;11.40;99.90;;;;;;5055336;28;20033;-86
2022/04/07 09:08:28;;;;;;;1.33;0.40;;;11.50;99.90;;;;;;5038308;28;20028;-86
2022/04/07 09:10:57;;;;;;;2.27;0.67;;;11.50;99.90;;;;;;5073136;28;20064;-86
2022/04/07 09:13:23;;;;;;;7.07;0.90;;;11.60;99.90;;;;;;5072910;28;20085;-84
2022/04/07 09:15:49;;;;;;;3.20;0.70;;;10.90;99.90;;;;;;5072930;28;20126;-84
2022/04/07 09:18:25;;;;;;;5.73;2.23;;;10.20;99.90;;;;;;5073208;28;20035;-84
2022/04/07 09:20:51;;;;;;;3.70;0.70;;;9.70;99.90;;;;;;5073200;28;20025;-84
2022/04/07 09:23:17;;;;;;;4.40;1.33;;;9.30;99.90;;;;;;5054887;28;20040;-84
2022/04/07 09:25:49;;;;;;;4.73;0.83;;;9.10;99.90;;;;;;5072726;28;20036;-84
2022/04/07 09:28:32;;;;;;;1.47;0.50;;;9.00;99.90;;;;;;5054593;28;20029;-84
2022/04/07 09:31:00;;;;;;;5.07;0.80;;;8.90;99.90;;;;;;5072735;28;20534;-85
2022/04/07 09:33:27;;;;;;;2.33;0.60;;;8.90;99.90;;;;;;5072518;28;20078;-84
2022/04/07 09:36:05;;;;;;;4.10;0.60;;;8.80;99.90;;;;;;5072606;28;20031;-84
2022/04/07 09:38:32;;;;;;;2.57;0.50;;;8.80;99.90;;;;;;5072501;28;20029;-85
2022/04/07 09:41:12;;;;;;;7.20;1.10;;;8.70;99.90;;;;;;5038142;28;20056;-84
2022/04/07 09:43:41;;;;;;;3.57;0.97;;;8.70;99.90;;;;;;5072437;28;20028;-84
2022/04/07 09:46:12;;;;;;;6.45;0.82;;;8.70;99.90;;;;;;5037827;28;20036;-85
2022/04/07 09:48:38;;;;;;;5.17;1.40;;;8.60;99.90;;;;;;5054415;28;20028;-84
2022/04/07 09:51:06;;;;;;;1.43;0.70;;;8.70;99.90;;;;;;5054451;28;20235;-84
2022/04/07 09:53:38;;;;;;;3.50;1.00;;;8.80;99.90;;;;;;5037683;28;20300;-86
2022/04/07 09:56:06;;;;;;;7.17;2.73;;;8.80;99.90;;;;;;5072446;28;20461;-85
2022/04/07 09:58:35;;;;;;;7.80;2.37;;;8.80;99.90;;;;;;5037530;28;20036;-85
2022/04/07 10:01:02;;;;;;;;;;;8.90;99.90;;;;;;5054815;28;20048;-85
2022/04/07 10:03:31;;;;;;;15.43;3.70;;;8.90;99.90;;;;;;5072061;28;20384;-85
2022/04/07 10:06:00;;;;;;;4.22;1.05;;;9.00;99.90;;;;;;5072094;28;20115;-85
2022/04/07 10:08:27;;;;;;;9.52;2.47;;;9.20;99.90;;;;;;5071999;28;20033;-85
2022/04/07 10:10:54;;;;;;;6.30;1.63;;;9.30;99.90;;;;;;5071807;28;20029;-85
2022/04/07 10:13:20;;;;;;;9.53;1.63;;;9.40;99.90;;;;;;5071697;28;20043;-85
2022/04/07 10:15:47;;;;;;;5.53;1.70;;;9.40;99.90;;;;;;5071627;28;20036;-85
2022/04/07 10:18:26;;;;;;;6.43;1.40;;;9.60;99.90;;;;;;5071659;28;20035;-85
2022/04/07 10:20:57;;;;;;;7.33;1.50;;;9.70;99.90;;;;;;5072109;28;20029;-85
2022/04/07 10:23:54;;;;;;;3.77;1.50;;;9.70;99.90;;;;;;5071714;28;20275;-85
2022/04/07 10:26:22;;;;;;;3.37;1.47;;;9.80;99.90;;;;;;5072134;28;20035;-85
2022/04/07 10:28:58;;;;;;;2.40;1.20;;;9.90;99.90;;;;;;5053997;28;20029;-85
2022/04/07 10:31:25;;;;;;;3.13;1.37;;;10.00;99.90;;;;;;5072069;28;20028;-85
2022/04/07 10:33:51;;;;;;;3.57;1.40;;;10.10;99.90;;;;;;5054025;28;20032;-85
2022/04/07 10:36:18;;;;;;;5.53;2.93;;;10.10;99.90;;;;;;5054001;28;20031;-85
2022/04/07 10:38:49;;;;;;;2.20;1.40;;;10.20;99.90;;;;;;5071680;28;20040;-85
2022/04/07 10:41:36;;;;;;;3.20;1.30;;;10.30;99.90;;;;;;5071792;28;20025;-85
2022/04/07 10:44:19;;;;;;;2.20;1.20;;;10.30;99.90;;;;;;5071755;28;20032;-85
2022/04/07 10:46:45;;;;;;;3.20;1.40;;;10.50;99.90;;;;;;5071437;28;20028;-85
2022/04/07 10:49:18;;;;;;;3.33;1.00;;;10.50;99.90;;;;;;5071883;28;20477;-85
2022/04/07 10:51:49;;;;;;;6.43;1.80;;;10.70;99.90;;;;;;5071870;28;20036;-85
2022/04/07 10:54:15;;;;;;;17.80;3.37;;;10.80;99.90;;;;;;5071732;28;20039;-85
2022/04/07 10:56:53;;;;;;;17.57;3.00;;;10.90;99.90;;;;;;5071496;28;20029;-84
2022/04/07 10:59:21;;;;;;;7.57;1.50;;;11.00;99.90;;;;;;5053864;28;20033;-85
2022/04/07 11:01:52;;;;;;;10.27;2.55;;;11.10;99.90;;;;;;5071606;28;20021;-85
2022/04/07 11:04:21;;;;;;;10.07;2.57;;;11.20;99.90;;;;;;5071652;28;20028;-86
2022/04/07 11:07:04;;;;;;;15.87;2.40;;;11.20;99.90;;;;;;5071210;28;20055;-85
2022/04/07 11:09:50;;;;;;;5.40;1.60;;;11.40;99.90;;;;;;5036914;28;20287;-85
2022/04/07 11:12:22;;;;;;;5.10;1.03;;;11.40;99.90;;;;;;5071316;28;20355;-85
2022/04/07 11:14:55;;;;;;;2.53;0.80;;;11.60;99.90;;;;;;5071560;28;20076;-85
2022/04/07 11:17:37;;;;;;;4.83;1.20;;;11.70;99.90;;;;;;5053241;28;20036;-86
2022/04/07 11:20:25;;;;;;;3.97;1.10;;;11.70;99.90;;;;;;5071397;28;20389;-86
2022/04/07 11:22:54;;;;;;;3.63;1.33;;;11.80;99.90;;;;;;5052356;28;20384;-86
2022/04/07 11:25:31;;;;;;;6.33;1.50;;;11.80;99.90;;;;;;5036941;28;20058;-86
2022/04/07 11:28:14;;;;;;;15.57;2.30;;;11.80;99.90;;;;;;5036556;28;20048;-86
2022/04/07 11:30:40;;;;;;;12.20;3.07;;;11.90;99.90;;;;;;5071227;28;20040;-86
2022/04/07 11:33:20;;;;;;;6.17;1.37;;;11.90;99.90;;;;;;5070961;28;20021;-86
2022/04/07 11:35:58;;;;;;;23.00;3.63;;;11.90;99.90;;;;;;5070951;28;20465;-85
2022/04/07 11:38:34;;;;;;;6.70;1.47;;;11.90;99.90;;;;;;5070884;28;20031;-86
2022/04/07 11:41:01;;;;;;;7.67;2.33;;;11.90;99.90;;;;;;5071308;28;20032;-86
2022/04/07 11:43:27;;;;;;;9.10;1.30;;;12.00;99.90;;;;;;5070944;28;20396;-86
2022/04/07 11:45:54;;;;;;;6.03;1.67;;;12.10;99.90;;;;;;5070873;28;20452;-86
2022/04/07 11:48:21;;;;;;;2.67;0.90;;;12.20;99.90;;;;;;5071093;28;20036;-86
2022/04/07 11:50:46;;;;;;;4.70;0.80;;;12.30;98.80;;;;;;5053379;28;20044;-85
2022/04/07 11:53:12;;;;;;;4.33;1.27;;;12.50;96.90;;;;;;5036501;28;20036;-86
2022/04/07 11:55:38;;;;;;;5.07;1.00;;;12.60;95.30;;;;;;5070829;28;20112;-87
2022/04/07 11:58:04;;;;;;;2.60;0.53;;;12.70;94.70;;;;;;5070728;28;20024;-86
2022/04/07 12:00:31;;;;;;;5.63;1.60;;;12.70;94.60;;;;;;5070980;28;20024;-87
2022/04/07 12:03:05;;;;;;;3.23;1.10;;;12.60;94.10;;;;;;5071026;28;20040;-86
2022/04/07 12:05:35;;;;;;;2.33;0.70;;;12.70;94.30;;;;;;5070915;28;20025;-87
2022/04/07 12:08:14;;;;;;;5.20;1.23;;;12.80;92.30;;;;;;5052855;28;20029;-86
2022/04/07 12:10:42;;;;;;;3.63;0.80;;;12.80;92.40;;;;;;5052916;28;20074;-87
2022/04/07 12:13:08;;;;;;;4.03;0.87;;;12.80;91.70;;;;;;5070742;28;20067;-87
2022/04/07 12:15:35;;;;;;;3.17;0.90;;;12.90;92.70;;;;;;5070879;28;20045;-87
2022/04/07 12:18:08;;;;;;;3.77;1.23;;;12.90;92.80;;;;;;5052675;28;20056;-87
2022/04/07 12:20:35;;;;;;;4.17;1.27;;;12.90;91.20;;;;;;5070968;28;20056;-87
2022/04/07 12:23:07;;;;;;;5.13;0.90;;;12.90;91.30;;;;;;5070852;28;20534;-87
2022/04/07 12:25:38;;;;;;;7.93;1.47;;;12.80;90.50;;;;;;5052610;28;20032;-86
2022/04/07 12:28:08;;;;;;;4.43;1.20;;;12.30;96.20;;;;;;5070652;28;20052;-86
2022/04/07 12:30:50;;;;;;;7.53;1.80;;;11.40;99.90;;;;;;5070873;28;20082;-86
2022/04/07 12:33:41;;;;;;;5.17;1.27;;;10.90;99.90;;;;;;5053189;28;20033;-86
2022/04/07 12:36:12;;;;;;;7.00;1.70;;;10.50;99.90;;;;;;5074234;28;20021;-86
2022/04/07 12:38:39;;;;;;;10.17;1.93;;;10.40;99.90;;;;;;5074216;28;20028;-86
2022/04/07 12:41:13;;;;;;;10.80;2.40;;;10.40;99.90;;;;;;5074222;28;20071;-85
2022/04/07 12:43:51;;;;;;;9.63;2.37;;;10.20;99.90;;;;;;5073953;28;20029;-86
2022/04/07 12:46:20;;;;;;;8.38;2.10;;;10.00;99.90;;;;;;5039407;28;20039;-85
2022/04/07 12:49:03;;;;;;;7.78;2.10;;;9.90;99.90;;;;;;5075410;28;20029;-87
2022/04/07 12:51:29;;;;;;;10.67;2.20;;;9.80;99.90;;;;;;5056062;28;20107;-86